createdAt,value
2023-05-17T00:02:20.985Z,99096.00
2023-05-17T00:04:47.592Z,99102.00
2023-05-17T00:07:14.337Z,99097.00
2023-05-17T00:09:40.968Z,99103.00
2023-05-17T00:12:07.712Z,99103.00
2023-05-17T00:14:34.321Z,99102.00
2023-05-17T00:17:00.973Z,99099.00
2023-05-17T00:19:27.629Z,99086.00
2023-05-17T00:21:54.332Z,99093.00
2023-05-17T00:24:21.008Z,99100.00
2023-05-17T00:26:47.598Z,99100.00
2023-05-17T00:29:14.775Z,99102.00
2023-05-17T00:31:42.450Z,99107.00
2023-05-17T00:34:09.127Z,99106.00
2023-05-17T00:36:35.763Z,99109.00
2023-05-17T00:39:02.413Z,99113.00
2023-05-17T00:41:29.025Z,99099.00
2023-05-17T00:43:55.674Z,99106.00
2023-05-17T00:46:22.257Z,99114.00
2023-05-17T00:48:48.978Z,99107.00
2023-05-17T00:51:19.152Z,99099.00
2023-05-17T00:53:46.105Z,99105.00
2023-05-17T00:56:13.233Z,99102.00
2023-05-17T00:58:40.820Z,99101.00
2023-05-17T01:01:07.516Z,99103.00
2023-05-17T01:03:34.473Z,99106.00
2023-05-17T01:06:01.231Z,99107.00
2023-05-17T01:08:27.814Z,99104.00
2023-05-17T01:11:04.672Z,99107.00
2023-05-17T01:13:38.401Z,99109.00
2023-05-17T01:16:33.550Z,99106.00
2023-05-17T01:19:16.482Z,99117.00
2023-05-17T01:22:14.569Z,99111.00
2023-05-17T01:24:59.357Z,99116.00
2023-05-17T01:27:27.452Z,99112.00
2023-05-17T01:29:56.737Z,99111.00
2023-05-17T01:32:25.057Z,99108.00
2023-05-17T01:34:52.112Z,99111.00
2023-05-17T01:37:18.720Z,99113.00
2023-05-17T01:39:45.356Z,99115.00
2023-05-17T01:42:33.594Z,99105.00
2023-05-17T01:45:04.705Z,99110.00
2023-05-17T01:47:50.606Z,99109.00
2023-05-17T01:50:20.288Z,99118.00
2023-05-17T01:52:55.925Z,99113.00
2023-05-17T01:55:41.480Z,99121.00
2023-05-17T01:58:10.805Z,99116.00
2023-05-17T02:00:39.695Z,99121.00
2023-05-17T02:03:06.539Z,99118.00
2023-05-17T02:05:33.448Z,99112.00
2023-05-17T02:08:00.131Z,99110.00
2023-05-17T02:10:26.783Z,99116.00
2023-05-17T02:12:53.464Z,99116.00
2023-05-17T02:15:20.216Z,99123.00
2023-05-17T02:17:46.895Z,99129.00
2023-05-17T02:20:15.092Z,99129.00
2023-05-17T02:22:41.861Z,99122.00
2023-05-17T02:25:08.967Z,99129.00
2023-05-17T02:27:36.108Z,99127.00
2023-05-17T02:30:04.488Z,99119.00
2023-05-17T02:32:32.109Z,99124.00
2023-05-17T02:34:59.260Z,99135.00
2023-05-17T02:37:26.309Z,99130.00
2023-05-17T02:39:52.934Z,99128.00
2023-05-17T02:42:19.593Z,99134.00
2023-05-17T02:44:48.406Z,99139.00
2023-05-17T02:47:14.990Z,99139.00
2023-05-17T02:49:41.703Z,99132.00
2023-05-17T02:52:08.307Z,99139.00
2023-05-17T02:54:34.916Z,99145.00
2023-05-17T02:57:01.609Z,99148.00
2023-05-17T02:59:28.225Z,99147.00
2023-05-17T03:01:55.208Z,99151.00
2023-05-17T03:04:22.137Z,99147.00
2023-05-17T03:06:50.800Z,99154.00
2023-05-17T03:09:18.060Z,99154.00
2023-05-17T03:11:47.405Z,99148.00
2023-05-17T03:14:19.548Z,99154.00
2023-05-17T03:16:46.291Z,99155.00
2023-05-17T03:19:13.689Z,99161.00
2023-05-17T03:21:42.522Z,99159.00
2023-05-17T03:24:09.271Z,99155.00
2023-05-17T03:26:37.162Z,99150.00
2023-05-17T03:29:05.257Z,99165.00
2023-05-17T03:31:32.481Z,99160.00
2023-05-17T03:33:59.284Z,99164.00
2023-05-17T03:36:26.240Z,99165.00
2023-05-17T03:38:52.957Z,99158.00
2023-05-17T03:41:19.768Z,99153.00
2023-05-17T03:43:46.716Z,99163.00
2023-05-17T03:46:15.196Z,99159.00
2023-05-17T03:48:41.803Z,99154.00
2023-05-17T03:51:09.860Z,99147.00
2023-05-17T03:53:41.248Z,99162.00
2023-05-17T03:56:07.907Z,99159.00
2023-05-17T03:58:34.568Z,99157.00
2023-05-17T04:01:01.360Z,99161.00
2023-05-17T04:03:28.096Z,99163.00
2023-05-17T04:06:02.116Z,99161.00
2023-05-17T04:08:28.650Z,99168.00
2023-05-17T04:10:55.598Z,99173.00
2023-05-17T04:13:22.137Z,99170.00
2023-05-17T04:15:48.772Z,99175.00
2023-05-17T04:18:15.483Z,99176.00
2023-05-17T04:20:42.512Z,99177.00
2023-05-17T04:23:09.160Z,99179.00
2023-05-17T04:25:36.859Z,99191.00
2023-05-17T04:28:03.990Z,99188.00
2023-05-17T04:30:30.736Z,99191.00
2023-05-17T04:32:57.304Z,99195.00
2023-05-17T04:35:24.047Z,99190.00
2023-05-17T04:37:53.757Z,99200.00
2023-05-17T04:40:22.260Z,99196.00
2023-05-17T04:42:50.401Z,99196.00
2023-05-17T04:45:17.715Z,99199.00
2023-05-17T04:47:44.472Z,99213.00
2023-05-17T04:50:12.393Z,99210.00
2023-05-17T04:52:39.234Z,99216.00
2023-05-17T04:55:06.476Z,99218.00
2023-05-17T04:57:33.031Z,99218.00
2023-05-17T05:00:07.378Z,99228.00
2023-05-17T05:02:35.266Z,99229.00
2023-05-17T05:05:04.955Z,99232.00
2023-05-17T05:07:32.312Z,99230.00
2023-05-17T05:09:59.030Z,99229.00
2023-05-17T05:12:25.729Z,99229.00
2023-05-17T05:14:52.561Z,99235.00
2023-05-17T05:17:19.700Z,99239.00
2023-05-17T05:19:46.653Z,99250.00
2023-05-17T05:22:13.338Z,99248.00
2023-05-17T05:24:40.977Z,99254.00
2023-05-17T05:27:07.639Z,99252.00
2023-05-17T05:29:35.566Z,99263.00
2023-05-17T05:32:02.852Z,99267.00
2023-05-17T05:34:31.704Z,99268.00
2023-05-17T05:36:59.485Z,99259.00
2023-05-17T05:39:27.869Z,99256.00
2023-05-17T05:41:54.923Z,99259.00
2023-05-17T05:44:22.946Z,99263.00
2023-05-17T05:46:51.865Z,99270.00
2023-05-17T05:49:19.444Z,99275.00
2023-05-17T05:51:46.083Z,99271.00
2023-05-17T05:54:14.136Z,99273.00
2023-05-17T05:56:40.845Z,99275.00
2023-05-17T05:59:09.879Z,99266.00
2023-05-17T06:01:36.540Z,99278.00
2023-05-17T06:04:03.157Z,99280.00
2023-05-17T06:06:30.177Z,99277.00
2023-05-17T06:08:59.432Z,99285.00
2023-05-17T06:11:26.574Z,99290.00
2023-05-17T06:13:53.328Z,99284.00
2023-05-17T06:16:20.034Z,99292.00
2023-05-17T06:18:49.340Z,99300.00
2023-05-17T06:21:18.547Z,99296.00
2023-05-17T06:23:45.597Z,99304.00
2023-05-17T06:26:12.343Z,99298.00
2023-05-17T06:28:39.076Z,99296.00
2023-05-17T06:31:05.808Z,99310.00
2023-05-17T06:33:32.554Z,99318.00
2023-05-17T06:35:59.661Z,99314.00
2023-05-17T06:38:27.335Z,99318.00
2023-05-17T06:40:55.337Z,99320.00
2023-05-17T06:43:22.202Z,99319.00
2023-05-17T06:45:48.835Z,99328.00
2023-05-17T06:48:15.829Z,99327.00
2023-05-17T06:50:42.814Z,99333.00
2023-05-17T06:53:09.538Z,99328.00
2023-05-17T06:55:36.366Z,99332.00
2023-05-17T06:58:03.034Z,99326.00
2023-05-17T07:00:29.877Z,99320.00
2023-05-17T07:02:56.986Z,99323.00
2023-05-17T07:05:28.852Z,99332.00
2023-05-17T07:07:56.026Z,99331.00
2023-05-17T07:10:22.601Z,99331.00
2023-05-17T07:12:49.182Z,99334.00
2023-05-17T07:15:15.840Z,99333.00
2023-05-17T07:17:42.517Z,99342.00
2023-05-17T07:20:09.824Z,99335.00
2023-05-17T07:22:37.475Z,99341.00
2023-05-17T07:25:05.254Z,99337.00
2023-05-17T07:27:31.909Z,99340.00
2023-05-17T07:29:58.738Z,99352.00
2023-05-17T07:32:25.370Z,99349.00
2023-05-17T07:34:52.127Z,99335.00
2023-05-17T07:37:20.087Z,99345.00
2023-05-17T07:39:46.731Z,99336.00
2023-05-17T07:42:16.546Z,99342.00
2023-05-17T07:44:43.256Z,99337.00
2023-05-17T07:47:10.031Z,99350.00
2023-05-17T07:49:36.655Z,99338.00
2023-05-17T07:52:04.011Z,99346.00
2023-05-17T07:54:30.985Z,99352.00
2023-05-17T07:56:57.697Z,99351.00
2023-05-17T07:59:24.726Z,99344.00
2023-05-17T08:01:52.139Z,99351.00
2023-05-17T08:04:21.671Z,99353.00
2023-05-17T08:06:48.580Z,99357.00
2023-05-17T08:09:18.479Z,99353.00
2023-05-17T08:11:47.990Z,99362.00
2023-05-17T08:14:15.288Z,99363.00
2023-05-17T08:16:42.998Z,99358.00
2023-05-17T08:19:13.352Z,99361.00
2023-05-17T08:21:40.993Z,99356.00
2023-05-17T08:24:08.099Z,99349.00
2023-05-17T08:26:35.086Z,99347.00
2023-05-17T08:29:02.680Z,99347.00
2023-05-17T08:31:29.742Z,99353.00
2023-05-17T08:33:56.500Z,99352.00
2023-05-17T08:36:23.209Z,99352.00
2023-05-17T08:38:51.489Z,99350.00
2023-05-17T08:41:18.342Z,99356.00
2023-05-17T08:43:45.030Z,99349.00
2023-05-17T08:46:12.606Z,99345.00
2023-05-17T08:48:42.272Z,99351.00
2023-05-17T08:51:12.338Z,99344.00
2023-05-17T08:53:39.132Z,99339.00
2023-05-17T08:56:07.124Z,99341.00
2023-05-17T08:58:51.734Z,99344.00
2023-05-17T09:01:26.068Z,99342.00
2023-05-17T09:03:53.757Z,99342.00
2023-05-17T09:06:21.656Z,99335.00
2023-05-17T09:08:52.614Z,99330.00
2023-05-17T09:11:27.774Z,99337.00
2023-05-17T09:13:58.403Z,99332.00
2023-05-17T09:16:26.478Z,99333.00
2023-05-17T09:18:57.288Z,99338.00
2023-05-17T09:21:25.265Z,99345.00
2023-05-17T09:24:04.715Z,99336.00
2023-05-17T09:26:43.302Z,99342.00
2023-05-17T09:29:11.952Z,99346.00
2023-05-17T09:31:39.380Z,99348.00
2023-05-17T09:34:08.041Z,99352.00
2023-05-17T09:36:42.576Z,99363.00
2023-05-17T09:39:14.551Z,99366.00
2023-05-17T09:41:42.765Z,99349.00
2023-05-17T09:44:10.893Z,99361.00
2023-05-17T09:46:48.062Z,99352.00
2023-05-17T09:49:16.026Z,99350.00
2023-05-17T09:51:48.989Z,99349.00
2023-05-17T09:54:17.698Z,99349.00
2023-05-17T09:56:44.339Z,99349.00
2023-05-17T09:59:16.169Z,99352.00
2023-05-17T10:01:47.705Z,99352.00
2023-05-17T10:04:20.476Z,99356.00
2023-05-17T10:06:52.119Z,99347.00
2023-05-17T10:09:24.201Z,99350.00
2023-05-17T10:11:52.925Z,99350.00
2023-05-17T10:14:33.825Z,99346.00
2023-05-17T10:17:02.987Z,99351.00
2023-05-17T10:19:30.656Z,99341.00
2023-05-17T10:22:04.943Z,99348.00
2023-05-17T10:24:38.101Z,99342.00
2023-05-17T10:27:07.619Z,99349.00
2023-05-17T10:29:37.105Z,99343.00
2023-05-17T10:32:07.329Z,99351.00
2023-05-17T10:34:36.442Z,99332.00
2023-05-17T10:37:04.405Z,99331.00
2023-05-17T10:39:34.452Z,99333.00
2023-05-17T10:42:14.195Z,99336.00
2023-05-17T10:44:41.991Z,99346.00
2023-05-17T10:47:08.915Z,99331.00
2023-05-17T10:49:38.932Z,99331.00
2023-05-17T10:52:20.857Z,99324.00
2023-05-17T10:54:49.330Z,99327.00
2023-05-17T10:57:49.177Z,99327.00
2023-05-17T11:00:20.722Z,99326.00
2023-05-17T11:02:48.695Z,99327.00
2023-05-17T11:05:27.243Z,99334.00
2023-05-17T11:08:13.190Z,99323.00
2023-05-17T11:11:09.398Z,99317.00
2023-05-17T11:13:54.183Z,99315.00
2023-05-17T11:16:23.531Z,99339.00
2023-05-17T11:18:52.333Z,99323.00
2023-05-17T11:21:20.495Z,99326.00
2023-05-17T11:23:48.274Z,99326.00
2023-05-17T11:26:22.575Z,99322.00
2023-05-17T11:29:00.256Z,99330.00
2023-05-17T11:31:34.740Z,99333.00
2023-05-17T11:34:04.419Z,99338.00
2023-05-17T11:36:31.828Z,99326.00
2023-05-17T11:39:20.435Z,99326.00
2023-05-17T11:41:54.808Z,99327.00
2023-05-17T11:44:32.422Z,99315.00
2023-05-17T11:47:09.807Z,99315.00
2023-05-17T11:49:38.248Z,99315.00
2023-05-17T11:52:06.143Z,99320.00
2023-05-17T11:54:33.542Z,99320.00
2023-05-17T11:57:02.261Z,99313.00
2023-05-17T11:59:28.931Z,99318.00
2023-05-17T12:01:56.343Z,99309.00
2023-05-17T12:04:25.587Z,99311.00
2023-05-17T12:06:54.155Z,99310.00
2023-05-17T12:09:22.080Z,99321.00
2023-05-17T12:11:48.899Z,99316.00
2023-05-17T12:14:20.297Z,99316.00
2023-05-17T12:16:56.454Z,99299.00
2023-05-17T12:19:26.069Z,99297.00
2023-05-17T12:21:52.802Z,99306.00
2023-05-17T12:24:19.490Z,99297.00
2023-05-17T12:26:47.269Z,99297.00
2023-05-17T12:29:15.890Z,99295.00
2023-05-17T12:31:53.768Z,99296.00
2023-05-17T12:34:20.948Z,99297.00
2023-05-17T12:36:48.867Z,99308.00
2023-05-17T12:39:15.735Z,99295.00
2023-05-17T12:41:43.469Z,99300.00
2023-05-17T12:46:39.628Z,99297.00
2023-05-17T12:49:08.510Z,99304.00
2023-05-17T12:51:45.896Z,99287.00
2023-05-17T12:54:16.044Z,99293.00
2023-05-17T12:56:46.600Z,99286.00
2023-05-17T12:59:25.475Z,99292.00
2023-05-17T13:01:57.534Z,99289.00
2023-05-17T13:04:32.692Z,99289.00
2023-05-17T13:07:01.897Z,99284.00
2023-05-17T13:09:32.940Z,99289.00
2023-05-17T13:12:07.169Z,99288.00
2023-05-17T13:14:45.648Z,99283.00
2023-05-17T13:17:22.938Z,99283.00
2023-05-17T13:19:50.142Z,99278.00
2023-05-17T13:22:16.876Z,99271.00
2023-05-17T13:24:44.680Z,99278.00
2023-05-17T13:27:12.329Z,99284.00
2023-05-17T13:29:42.228Z,99277.00
2023-05-17T13:32:11.600Z,99277.00
2023-05-17T13:34:38.928Z,99273.00
2023-05-17T13:37:08.688Z,99271.00
2023-05-17T13:39:37.135Z,99267.00
2023-05-17T13:42:03.950Z,99267.00
2023-05-17T13:44:30.626Z,99255.00
2023-05-17T13:46:57.194Z,99252.00
2023-05-17T13:49:23.762Z,99251.00
2023-05-17T13:51:50.716Z,99249.00
2023-05-17T13:54:20.063Z,99244.00
2023-05-17T13:56:46.841Z,99247.00
2023-05-17T13:59:13.558Z,99251.00
2023-05-17T14:01:41.241Z,99252.00
2023-05-17T14:04:07.863Z,99249.00
2023-05-17T14:06:34.437Z,99245.00
2023-05-17T14:09:01.149Z,99237.00
2023-05-17T14:11:27.947Z,99255.00
2023-05-17T14:13:54.519Z,99247.00
2023-05-17T14:16:22.860Z,99257.00
2023-05-17T14:18:50.085Z,99253.00
2023-05-17T14:21:16.822Z,99253.00
2023-05-17T14:23:43.412Z,99248.00
2023-05-17T14:26:09.994Z,99245.00
2023-05-17T14:28:38.158Z,99250.00
2023-05-17T14:31:06.822Z,99245.00
2023-05-17T14:33:33.556Z,99249.00
2023-05-17T14:36:00.269Z,99250.00
2023-05-17T14:38:26.937Z,99259.00
2023-05-17T14:40:53.481Z,99241.00
2023-05-17T14:43:20.945Z,99249.00
2023-05-17T14:45:47.446Z,99248.00
2023-05-17T14:48:14.112Z,99242.00
2023-05-17T14:50:40.793Z,99243.00
2023-05-17T14:53:07.527Z,99240.00
2023-05-17T14:55:34.134Z,99238.00
2023-05-17T14:58:01.823Z,99252.00
2023-05-17T15:00:28.494Z,99239.00
2023-05-17T15:02:55.048Z,99246.00
2023-05-17T15:05:21.602Z,99239.00
2023-05-17T15:07:48.348Z,99241.00
2023-05-17T15:10:15.901Z,99236.00
2023-05-17T15:12:42.480Z,99225.00
2023-05-17T15:15:09.384Z,99227.00
2023-05-17T15:17:35.983Z,99240.00
2023-05-17T15:20:02.576Z,99234.00
2023-05-17T15:22:29.373Z,99242.00
2023-05-17T15:24:57.745Z,99235.00
2023-05-17T15:27:24.292Z,99223.00
2023-05-17T15:29:50.929Z,99241.00
2023-05-17T15:32:17.486Z,99233.00
2023-05-17T15:34:45.370Z,99233.00
2023-05-17T15:37:12.056Z,99222.00
2023-05-17T15:39:38.622Z,99219.00
2023-05-17T15:42:05.821Z,99235.00
2023-05-17T15:44:32.440Z,99221.00
2023-05-17T15:47:00.379Z,99223.00
2023-05-17T15:49:28.964Z,99235.00
2023-05-17T15:51:55.832Z,99231.00
2023-05-17T15:54:22.436Z,99236.00
2023-05-17T15:56:48.978Z,99223.00
2023-05-17T15:59:16.103Z,99221.00
2023-05-17T16:01:46.059Z,99222.00
2023-05-17T16:04:13.491Z,99236.00
2023-05-17T16:06:40.449Z,99229.00
2023-05-17T16:09:07.365Z,99217.00
2023-05-17T16:11:33.933Z,99211.00
2023-05-17T16:14:00.639Z,99206.00
2023-05-17T16:16:27.294Z,99226.00
2023-05-17T16:18:54.160Z,99213.00
2023-05-17T16:21:20.884Z,99211.00
2023-05-17T16:23:47.660Z,99214.00
2023-05-17T16:26:14.606Z,99213.00
2023-05-17T16:28:41.355Z,99218.00
2023-05-17T16:31:08.134Z,99217.00
2023-05-17T16:33:34.961Z,99220.00
2023-05-17T16:36:03.184Z,99218.00
2023-05-17T16:38:29.952Z,99236.00
2023-05-17T16:40:56.607Z,99218.00
2023-05-17T16:43:23.165Z,99216.00
2023-05-17T16:45:52.216Z,99213.00
2023-05-17T16:48:18.897Z,99222.00
2023-05-17T16:50:45.862Z,99230.00
2023-05-17T16:53:12.655Z,99217.00
2023-05-17T16:55:39.205Z,99214.00
2023-05-17T16:58:06.054Z,99212.00
2023-05-17T17:00:32.743Z,99219.00
2023-05-17T17:03:00.090Z,99224.00
2023-05-17T17:05:27.739Z,99209.00
2023-05-17T17:07:54.917Z,99222.00
2023-05-17T17:10:21.884Z,99215.00
2023-05-17T17:12:49.429Z,99227.00
2023-05-17T17:15:16.138Z,99197.00
2023-05-17T17:17:43.330Z,99192.00
2023-05-17T17:20:11.229Z,99199.00
2023-05-17T17:22:37.823Z,99206.00
2023-05-17T17:25:04.673Z,99218.00
2023-05-17T17:27:31.524Z,99210.00
2023-05-17T17:29:58.087Z,99208.00
2023-05-17T17:32:24.705Z,99213.00
2023-05-17T17:34:52.237Z,99217.00
2023-05-17T17:37:18.862Z,99217.00
2023-05-17T17:39:45.643Z,99224.00
2023-05-17T17:42:12.270Z,99219.00
2023-05-17T17:44:38.808Z,99251.00
2023-05-17T17:47:05.495Z,99228.00
2023-05-17T17:49:32.077Z,99223.00
2023-05-17T17:51:58.613Z,99228.00
2023-05-17T17:54:25.124Z,99227.00
2023-05-17T17:56:52.040Z,99234.00
2023-05-17T17:59:18.583Z,99239.00
2023-05-17T18:01:45.276Z,99241.00
2023-05-17T18:04:13.632Z,99250.00
2023-05-17T18:06:41.835Z,99251.00
2023-05-17T18:09:08.718Z,99247.00
2023-05-17T18:11:35.327Z,99249.00
2023-05-17T18:14:02.593Z,99254.00
2023-05-17T18:16:29.391Z,99254.00
2023-05-17T18:18:56.334Z,99253.00
2023-05-17T18:21:23.352Z,99252.00
2023-05-17T18:23:50.054Z,99252.00
2023-05-17T18:26:16.681Z,99249.00
2023-05-17T18:28:43.323Z,99245.00
2023-05-17T18:31:10.601Z,99240.00
2023-05-17T18:33:37.225Z,99248.00
2023-05-17T18:36:04.075Z,99251.00
2023-05-17T18:38:30.696Z,99250.00
2023-05-17T18:40:57.358Z,99254.00
2023-05-17T18:43:23.861Z,99244.00
2023-05-17T18:45:51.280Z,99243.00
2023-05-17T18:48:18.058Z,99242.00
2023-05-17T18:50:44.805Z,99248.00
2023-05-17T18:53:12.847Z,99251.00
2023-05-17T18:55:39.621Z,99251.00
2023-05-17T18:58:06.161Z,99258.00
2023-05-17T19:00:33.209Z,99255.00
2023-05-17T19:02:59.872Z,99253.00
2023-05-17T19:05:26.412Z,99256.00
2023-05-17T19:07:52.999Z,99251.00
2023-05-17T19:10:20.684Z,99256.00
2023-05-17T19:12:47.278Z,99266.00
2023-05-17T19:15:13.896Z,99267.00
2023-05-17T19:17:40.575Z,99260.00
2023-05-17T19:20:08.026Z,99267.00
2023-05-17T19:22:35.783Z,99271.00
2023-05-17T19:25:02.669Z,99276.00
2023-05-17T19:27:29.492Z,99276.00
2023-05-17T19:29:56.109Z,99279.00
2023-05-17T19:32:22.852Z,99280.00
2023-05-17T19:34:49.938Z,99287.00
2023-05-17T19:37:16.757Z,99286.00
2023-05-17T19:39:43.420Z,99288.00
2023-05-17T19:42:10.061Z,99284.00
2023-05-17T19:44:36.647Z,99285.00
2023-05-17T19:47:03.235Z,99292.00
2023-05-17T19:49:29.871Z,99294.00
2023-05-17T19:52:00.606Z,99283.00
2023-05-17T19:54:28.688Z,99290.00
2023-05-17T19:56:56.002Z,99289.00
2023-05-17T19:59:22.571Z,99289.00
2023-05-17T20:01:50.567Z,99297.00
2023-05-17T20:04:17.296Z,99293.00
2023-05-17T20:06:43.960Z,99298.00
2023-05-17T20:09:10.601Z,99300.00
2023-05-17T20:11:37.183Z,99299.00
2023-05-17T20:14:03.812Z,99297.00
2023-05-17T20:16:30.928Z,99300.00
2023-05-17T20:19:01.091Z,99295.00
2023-05-17T20:21:29.233Z,99295.00
2023-05-17T20:24:03.562Z,99299.00
2023-05-17T20:26:31.955Z,99310.00
2023-05-17T20:29:01.861Z,99294.00
2023-05-17T20:31:28.414Z,99296.00
2023-05-17T20:33:55.025Z,99300.00
2023-05-17T20:36:21.643Z,99306.00
2023-05-17T20:38:48.268Z,99297.00
2023-05-17T20:41:15.914Z,99299.00
2023-05-17T20:43:46.275Z,99310.00
2023-05-17T20:46:13.632Z,99304.00
2023-05-17T20:48:42.877Z,99299.00
2023-05-17T20:51:10.293Z,99309.00
2023-05-17T20:53:37.398Z,99300.00
2023-05-17T20:56:04.296Z,99305.00
2023-05-17T20:58:31.449Z,99299.00
2023-05-17T21:00:59.860Z,99305.00
2023-05-17T21:03:33.264Z,99305.00
2023-05-17T21:06:01.326Z,99310.00
2023-05-17T21:08:28.328Z,99318.00
2023-05-17T21:10:55.857Z,99315.00
2023-05-17T21:13:23.934Z,99312.00
2023-05-17T21:15:50.616Z,99311.00
2023-05-17T21:18:17.307Z,99312.00
2023-05-17T21:20:43.809Z,99324.00
2023-05-17T21:23:10.405Z,99315.00
2023-05-17T21:25:37.818Z,99309.00
2023-05-17T21:28:05.810Z,99317.00
2023-05-17T21:30:32.509Z,99318.00
2023-05-17T21:32:59.202Z,99317.00
2023-05-17T21:35:25.941Z,99317.00
2023-05-17T21:37:52.615Z,99324.00
2023-05-17T21:40:19.363Z,99325.00
2023-05-17T21:42:46.127Z,99313.00
2023-05-17T21:45:14.646Z,99313.00
2023-05-17T21:47:41.396Z,99314.00
2023-05-17T21:50:08.326Z,99310.00
2023-05-17T21:52:34.908Z,99315.00
2023-05-17T21:55:01.426Z,99314.00
2023-05-17T21:57:27.967Z,99315.00
2023-05-17T21:59:54.449Z,99317.00
2023-05-17T22:02:21.126Z,99315.00
2023-05-17T22:04:47.729Z,99320.00
2023-05-17T22:07:14.299Z,99329.00
2023-05-17T22:09:40.804Z,99323.00
2023-05-17T22:12:08.417Z,99317.00
2023-05-17T22:14:36.424Z,99323.00
2023-05-17T22:17:08.336Z,99318.00
2023-05-17T22:19:40.538Z,99314.00
2023-05-17T22:22:08.219Z,99320.00
2023-05-17T22:24:35.041Z,99312.00
2023-05-17T22:27:02.398Z,99318.00
2023-05-17T22:29:29.060Z,99324.00
2023-05-17T22:31:55.766Z,99316.00
2023-05-17T22:34:22.389Z,99319.00
2023-05-17T22:36:49.010Z,99321.00
2023-05-17T22:39:15.572Z,99317.00
2023-05-17T22:41:42.112Z,99319.00
2023-05-17T22:44:08.743Z,99322.00
2023-05-17T22:46:35.311Z,99321.00
2023-05-17T22:49:01.832Z,99327.00
2023-05-17T22:51:29.987Z,99327.00
2023-05-17T22:53:56.843Z,99330.00
2023-05-17T22:56:23.450Z,99328.00
2023-05-17T22:58:50.044Z,99327.00
2023-05-17T23:01:16.662Z,99331.00
2023-05-17T23:03:43.287Z,99326.00
2023-05-17T23:06:10.213Z,99336.00
2023-05-17T23:08:36.757Z,99338.00
2023-05-17T23:11:05.340Z,99338.00
2023-05-17T23:13:31.892Z,99334.00
2023-05-17T23:15:58.618Z,99343.00
2023-05-17T23:18:27.492Z,99331.00
2023-05-17T23:20:54.191Z,99336.00
2023-05-17T23:23:23.002Z,99327.00
2023-05-17T23:25:50.709Z,99323.00
2023-05-17T23:28:18.656Z,99328.00
2023-05-17T23:30:48.611Z,99325.00
2023-05-17T23:33:16.174Z,99320.00
2023-05-17T23:35:42.740Z,99322.00
2023-05-17T23:38:09.365Z,99319.00
2023-05-17T23:40:37.050Z,99318.00
2023-05-17T23:43:04.473Z,99318.00
2023-05-17T23:45:31.505Z,99315.00
2023-05-17T23:48:00.405Z,99311.00
2023-05-17T23:50:27.277Z,99312.00
2023-05-17T23:52:54.191Z,99315.00
2023-05-17T23:55:25.945Z,99312.00
2023-05-17T23:57:52.776Z,99304.00
